Time;durP1;ratioP1;P1;durP2;ratioP2;P2;SDS_P1;SDS_P2;PMS_P1;PMS_P2;Temp;Humidity;BMP_temperature;BMP_pressure;BME280_temperature;BME280_humidity;BME280_pressure;Samples;Min_cycle;Max_cycle;Signal;HPM_P1;HPM_P2
2023/03/25 00:00:31;;;;;;;0.00;0.00;;;;;;;;;;2104703;23;20499;-62
2023/03/25 00:01:24;;;;;;;0.00;0.00;;;;;;;;;;2107519;23;20181;-62
2023/03/25 00:02:15;;;;;;;0.00;0.00;;;;;;;;;;2107764;23;20277;-62
2023/03/25 00:03:08;;;;;;;0.00;0.00;;;;;;;;;;2107680;23;20204;-62
2023/03/25 00:03:59;;;;;;;0.00;0.00;;;;;;;;;;2108041;23;20191;-62
2023/03/25 00:04:51;;;;;;;0.00;0.00;;;;;;;;;;2107576;23;20177;-62
2023/03/25 00:05:42;;;;;;;0.00;0.00;;;;;;;;;;2105409;23;20658;-62
2023/03/25 00:06:35;;;;;;;0.00;0.00;;;;;;;;;;2107577;23;20540;-63
2023/03/25 00:07:26;;;;;;;0.00;0.00;;;;;;;;;;2108075;23;20225;-62
2023/03/25 00:08:18;;;;;;;0.00;0.00;;;;;;;;;;2107940;23;20181;-62
2023/03/25 00:09:09;;;;;;;0.00;0.00;;;;;;;;;;2107815;23;20206;-63
2023/03/25 00:10:01;;;;;;;0.00;0.00;;;;;;;;;;2108164;23;20705;-62
2023/03/25 00:10:52;;;;;;;0.00;0.00;;;;;;;;;;2105554;23;20213;-62
2023/03/25 00:11:44;;;;;;;0.00;0.00;;;;;;;;;;2108306;23;20267;-62
2023/03/25 00:12:36;;;;;;;0.00;0.00;;;;;;;;;;2108825;23;20185;-62
2023/03/25 00:13:30;;;;;;;0.00;0.00;;;;;;;;;;2108353;23;20178;-62
2023/03/25 00:14:23;;;;;;;0.10;0.10;;;;;;;;;;2108803;23;20332;-62
2023/03/25 00:15:16;;;;;;;0.00;0.00;;;;;;;;;;2106349;23;20185;-62
2023/03/25 00:16:08;;;;;;;0.00;0.00;;;;;;;;;;2107416;23;20303;-60
2023/03/25 00:17:00;;;;;;;0.00;0.00;;;;;;;;;;2107716;23;20182;-60
2023/03/25 00:17:51;;;;;;;0.00;0.00;;;;;;;;;;2108160;23;20548;-60
2023/03/25 00:18:43;;;;;;;0.00;0.00;;;;;;;;;;2108586;23;20232;-60
2023/03/25 00:19:34;;;;;;;0.00;0.00;;;;;;;;;;2107901;23;20174;-60
2023/03/25 00:20:26;;;;;;;0.00;0.00;;;;;;;;;;2105803;23;20247;-61
2023/03/25 00:21:17;;;;;;;0.00;0.00;;;;;;;;;;2107696;23;20232;-61
2023/03/25 00:22:09;;;;;;;0.00;0.00;;;;;;;;;;2108140;23;20177;-61
2023/03/25 00:23:00;;;;;;;0.00;0.00;;;;;;;;;;2108198;23;20181;-61
2023/03/25 00:23:52;;;;;;;0.00;0.00;;;;;;;;;;2108197;23;20177;-60
2023/03/25 00:24:43;;;;;;;0.00;0.00;;;;;;;;;;2108288;23;20272;-60
2023/03/25 00:25:35;;;;;;;0.00;0.00;;;;;;;;;;2105553;23;20209;-59
2023/03/25 00:26:28;;;;;;;0.00;0.00;;;;;;;;;;2107652;23;20236;-60
2023/03/25 00:27:20;;;;;;;0.00;0.00;;;;;;;;;;2108235;23;20248;-60
2023/03/25 00:28:12;;;;;;;0.00;0.00;;;;;;;;;;2108140;23;20182;-59
2023/03/25 00:29:04;;;;;;;0.00;0.00;;;;;;;;;;2107807;23;20212;-59
2023/03/25 00:29:57;;;;;;;0.00;0.00;;;;;;;;;;2108154;23;20184;-60
2023/03/25 00:30:48;;;;;;;0.00;0.00;;;;;;;;;;2105958;23;20221;-59
2023/03/25 00:31:40;;;;;;;0.00;0.00;;;;;;;;;;2108199;23;20192;-60
2023/03/25 00:32:31;;;;;;;0.00;0.00;;;;;;;;;;2108272;23;20181;-60
2023/03/25 00:33:23;;;;;;;0.00;0.00;;;;;;;;;;2108143;23;20185;-59
2023/03/25 00:34:14;;;;;;;0.00;0.00;;;;;;;;;;2108233;23;20203;-59
2023/03/25 00:35:07;;;;;;;0.00;0.00;;;;;;;;;;2108126;23;20178;-60
2023/03/25 00:35:58;;;;;;;0.00;0.00;;;;;;;;;;2105446;23;20717;-60
2023/03/25 00:36:51;;;;;;;0.00;0.00;;;;;;;;;;2107575;23;20177;-60
2023/03/25 00:37:42;;;;;;;0.00;0.00;;;;;;;;;;2108397;23;20201;-60
2023/03/25 00:38:36;;;;;;;0.00;0.00;;;;;;;;;;2108220;23;20178;-60
2023/03/25 00:39:27;;;;;;;0.00;0.00;;;;;;;;;;2108083;23;20559;-60
2023/03/25 00:40:20;;;;;;;0.00;0.00;;;;;;;;;;2105787;23;20196;-60
2023/03/25 00:41:12;;;;;;;0.00;0.00;;;;;;;;;;2107897;23;20635;-59
2023/03/25 00:42:04;;;;;;;0.00;0.00;;;;;;;;;;2108149;23;20193;-60
2023/03/25 00:42:55;;;;;;;0.00;0.00;;;;;;;;;;2108076;23;20781;-60
2023/03/25 00:43:47;;;;;;;0.00;0.00;;;;;;;;;;2108372;23;20560;-60
2023/03/25 00:44:38;;;;;;;0.00;0.00;;;;;;;;;;2110903;23;20182;-60
2023/03/25 00:45:31;;;;;;;0.00;0.00;;;;;;;;;;2105708;23;20247;-60
2023/03/25 00:46:25;;;;;;;0.00;0.00;;;;;;;;;;2107586;23;20185;-59
2023/03/25 00:47:17;;;;;;;0.00;0.00;;;;;;;;;;2108024;23;20627;-60
2023/03/25 00:48:08;;;;;;;0.00;0.00;;;;;;;;;;2107439;23;20737;-60
2023/03/25 00:49:01;;;;;;;0.00;0.00;;;;;;;;;;2108156;23;20583;-60
2023/03/25 00:49:52;;;;;;;0.00;0.00;;;;;;;;;;2107985;23;20205;-60
2023/03/25 00:50:43;;;;;;;0.00;0.00;;;;;;;;;;2105476;23;20301;-60
2023/03/25 00:51:35;;;;;;;0.00;0.00;;;;;;;;;;2107952;23;20173;-60
2023/03/25 00:52:26;;;;;;;0.00;0.00;;;;;;;;;;2107730;23;20181;-60
2023/03/25 00:53:18;;;;;;;0.00;0.00;;;;;;;;;;2108581;23;20181;-60
2023/03/25 00:54:10;;;;;;;0.00;0.00;;;;;;;;;;2108399;23;20181;-60
2023/03/25 00:55:03;;;;;;;0.00;0.00;;;;;;;;;;2107661;23;20188;-60
2023/03/25 07:49:40;;;;;;;0.00;0.00;;;;;;;;;;2140175;22;20256;-63
2023/03/25 07:50:33;;;;;;;0.00;0.00;;;;;;;;;;2096316;23;20215;-60
2023/03/25 07:51:25;;;;;;;0.00;0.00;;;;;;;;;;2116455;23;20192;-60
2023/03/25 07:52:16;;;;;;;0.00;0.00;;;;;;;;;;2117221;23;20243;-60
2023/03/25 07:53:09;;;;;;;0.00;0.00;;;;;;;;;;2117407;23;20212;-60
2023/03/25 07:54:00;;;;;;;0.00;0.00;;;;;;;;;;2117581;23;20504;-60
2023/03/25 07:54:52;;;;;;;0.00;0.00;;;;;;;;;;2117251;23;20184;-60
2023/03/25 07:55:44;;;;;;;0.00;0.00;;;;;;;;;;2114801;23;20282;-59
2023/03/25 07:56:36;;;;;;;0.00;0.00;;;;;;;;;;2117565;23;20215;-60
2023/03/25 07:57:27;;;;;;;0.00;0.00;;;;;;;;;;2117376;23;20181;-59
2023/03/25 07:58:19;;;;;;;0.00;0.00;;;;;;;;;;2117233;23;20181;-60
2023/03/25 07:59:10;;;;;;;0.00;0.00;;;;;;;;;;2117293;23;20181;-60
2023/03/25 08:00:04;;;;;;;0.00;0.00;;;;;;;;;;2117527;23;20234;-60
2023/03/25 08:00:56;;;;;;;0.10;0.10;;;;;;;;;;2114738;23;20284;-61
2023/03/25 08:01:48;;;;;;;0.00;0.00;;;;;;;;;;2117288;23;20200;-60
2023/03/25 08:02:39;;;;;;;0.00;0.00;;;;;;;;;;2117726;23;20184;-60
2023/03/25 08:03:32;;;;;;;0.00;0.00;;;;;;;;;;2117197;23;20235;-60
2023/03/25 08:04:23;;;;;;;0.00;0.00;;;;;;;;;;2117793;23;20184;-60
2023/03/25 08:05:19;;;;;;;0.00;0.00;;;;;;;;;;2114690;23;20558;-61
2023/03/25 08:06:12;;;;;;;0.00;0.00;;;;;;;;;;2117039;23;20216;-61
2023/03/25 08:07:04;;;;;;;0.00;0.00;;;;;;;;;;2117193;23;20188;-61
2023/03/25 08:07:58;;;;;;;0.00;0.00;;;;;;;;;;2117342;23;20239;-61
2023/03/25 08:08:50;;;;;;;0.00;0.00;;;;;;;;;;2117254;23;20180;-60
2023/03/25 08:09:41;;;;;;;0.00;0.00;;;;;;;;;;2117237;23;20685;-60
2023/03/25 08:10:34;;;;;;;0.00;0.00;;;;;;;;;;2114936;23;20228;-59
2023/03/25 08:11:25;;;;;;;0.00;0.00;;;;;;;;;;2117280;23;20188;-61
2023/03/25 08:12:17;;;;;;;0.00;0.00;;;;;;;;;;2117945;23;20426;-61
2023/03/25 08:13:08;;;;;;;0.00;0.00;;;;;;;;;;2117580;23;20678;-59
2023/03/25 08:14:00;;;;;;;0.00;0.00;;;;;;;;;;2117471;23;20177;-60
2023/03/25 08:14:51;;;;;;;0.00;0.00;;;;;;;;;;2117342;23;20216;-60
2023/03/25 08:15:43;;;;;;;0.00;0.00;;;;;;;;;;2114943;23;20812;-60
2023/03/25 08:16:34;;;;;;;0.00;0.00;;;;;;;;;;2117496;23;20189;-60
2023/03/25 08:17:26;;;;;;;0.00;0.00;;;;;;;;;;2117519;23;20204;-60
2023/03/25 08:18:17;;;;;;;0.00;0.00;;;;;;;;;;2117413;23;20826;-58
2023/03/25 08:19:09;;;;;;;0.00;0.00;;;;;;;;;;2117649;23;20184;-59
2023/03/25 08:20:01;;;;;;;0.00;0.00;;;;;;;;;;2116967;23;20181;-60
2023/03/25 08:20:55;;;;;;;0.00;0.00;;;;;;;;;;2114520;23;20212;-60
2023/03/25 08:21:47;;;;;;;0.00;0.00;;;;;;;;;;2116857;23;20582;-60
2023/03/25 08:22:40;;;;;;;0.00;0.00;;;;;;;;;;2117703;23;20646;-60
2023/03/25 08:23:35;;;;;;;0.00;0.00;;;;;;;;;;2117398;23;20177;-61
2023/03/25 08:24:28;;;;;;;0.00;0.00;;;;;;;;;;2117429;23;20546;-59
2023/03/25 08:25:19;;;;;;;0.00;0.00;;;;;;;;;;2114732;23;20185;-60
2023/03/25 08:26:11;;;;;;;0.00;0.00;;;;;;;;;;2117148;23;20195;-59
2023/03/25 08:27:03;;;;;;;0.00;0.00;;;;;;;;;;2117429;23;20553;-60
2023/03/25 08:27:55;;;;;;;0.00;0.00;;;;;;;;;;2120488;23;20188;-60
2023/03/25 08:28:46;;;;;;;0.00;0.00;;;;;;;;;;2117098;23;20247;-60
2023/03/25 08:29:39;;;;;;;0.00;0.00;;;;;;;;;;2117065;23;20173;-60
2023/03/25 08:30:31;;;;;;;0.00;0.00;;;;;;;;;;2114142;23;20836;-59
2023/03/25 08:31:22;;;;;;;0.00;0.00;;;;;;;;;;2117291;23;20220;-61
2023/03/25 08:32:14;;;;;;;0.00;0.00;;;;;;;;;;2117246;23;20228;-58
2023/03/25 08:33:06;;;;;;;0.00;0.00;;;;;;;;;;2117364;23;20181;-60
2023/03/25 08:33:58;;;;;;;0.00;0.00;;;;;;;;;;2117580;23;20483;-61
2023/03/25 08:34:49;;;;;;;0.00;0.00;;;;;;;;;;2117336;23;20181;-60
2023/03/25 08:35:41;;;;;;;0.00;0.00;;;;;;;;;;2114733;23;20606;-61
2023/03/25 08:36:32;;;;;;;0.00;0.00;;;;;;;;;;2117181;23;20176;-61
2023/03/25 08:37:26;;;;;;;0.00;0.00;;;;;;;;;;2117556;23;20188;-61
2023/03/25 08:38:17;;;;;;;0.00;0.00;;;;;;;;;;2117436;23;20185;-60
2023/03/25 08:39:10;;;;;;;0.00;0.00;;;;;;;;;;2117322;23;20267;-60
2023/03/25 08:40:05;;;;;;;0.00;0.00;;;;;;;;;;2117430;23;20184;-59
2023/03/25 08:40:58;;;;;;;0.00;0.00;;;;;;;;;;2114505;23;20621;-59
2023/03/25 08:41:49;;;;;;;0.00;0.00;;;;;;;;;;2117144;23;20177;-59
2023/03/25 08:42:41;;;;;;;0.00;0.00;;;;;;;;;;2117119;23;20181;-60
2023/03/25 08:43:32;;;;;;;0.00;0.00;;;;;;;;;;2117315;23;20677;-60
2023/03/25 08:44:24;;;;;;;0.00;0.00;;;;;;;;;;2117705;23;20519;-61
2023/03/25 08:45:15;;;;;;;0.00;0.00;;;;;;;;;;2115216;23;20185;-60
2023/03/25 08:46:07;;;;;;;0.00;0.00;;;;;;;;;;2116711;23;20227;-59
2023/03/25 08:46:58;;;;;;;0.00;0.00;;;;;;;;;;2117033;23;20646;-60
2023/03/25 08:47:50;;;;;;;0.00;0.00;;;;;;;;;;2117363;23;20476;-60
2023/03/25 08:48:42;;;;;;;0.00;0.00;;;;;;;;;;2117525;23;20181;-60
2023/03/25 08:49:34;;;;;;;0.00;0.00;;;;;;;;;;2117152;23;20283;-60
2023/03/25 08:50:26;;;;;;;0.00;0.00;;;;;;;;;;2114138;23;20674;-61
2023/03/25 08:51:18;;;;;;;0.00;0.00;;;;;;;;;;2116840;23;20171;-60
2023/03/25 08:52:09;;;;;;;0.00;0.00;;;;;;;;;;2117354;23;20235;-60
2023/03/25 08:53:02;;;;;;;0.00;0.00;;;;;;;;;;2117348;23;20187;-60
2023/03/25 08:53:53;;;;;;;0.00;0.00;;;;;;;;;;2117542;23;20181;-60
2023/03/25 08:54:45;;;;;;;0.00;0.00;;;;;;;;;;2117298;23;20650;-60
2023/03/25 08:55:36;;;;;;;0.00;0.00;;;;;;;;;;2114880;23;20583;-60
2023/03/25 08:56:28;;;;;;;0.00;0.00;;;;;;;;;;2116604;23;20172;-60
2023/03/25 08:57:19;;;;;;;0.00;0.00;;;;;;;;;;2117010;23;20185;-60
2023/03/25 08:58:11;;;;;;;0.00;0.00;;;;;;;;;;2117393;23;20181;-60
2023/03/25 08:59:02;;;;;;;0.10;0.10;;;;;;;;;;2117208;23;20267;-60
2023/03/25 08:59:54;;;;;;;0.00;0.00;;;;;;;;;;2117440;23;20177;-60
2023/03/25 09:00:46;;;;;;;0.00;0.00;;;;;;;;;;2114982;23;20213;-61
2023/03/25 09:01:38;;;;;;;0.00;0.00;;;;;;;;;;2117052;23;20172;-60
2023/03/25 09:02:29;;;;;;;0.00;0.00;;;;;;;;;;2117558;23;20264;-61
2023/03/25 09:03:21;;;;;;;0.00;0.00;;;;;;;;;;2117265;23;20176;-60
2023/03/25 09:04:12;;;;;;;0.00;0.00;;;;;;;;;;2117504;23;20212;-61
2023/03/25 09:05:04;;;;;;;0.00;0.00;;;;;;;;;;2117629;23;20260;-60
2023/03/25 09:05:55;;;;;;;0.00;0.00;;;;;;;;;;2114489;23;20586;-60
2023/03/25 09:06:48;;;;;;;0.00;0.00;;;;;;;;;;2117486;23;20173;-59
2023/03/25 09:07:39;;;;;;;0.00;0.00;;;;;;;;;;2121038;23;20180;-60
2023/03/25 09:08:32;;;;;;;0.03;0.03;;;;;;;;;;2117550;23;20177;-60
2023/03/25 09:09:24;;;;;;;0.00;0.00;;;;;;;;;;2117936;23;20216;-61
2023/03/25 09:10:16;;;;;;;0.00;0.00;;;;;;;;;;2115168;23;20181;-59
2023/03/25 09:11:07;;;;;;;0.00;0.00;;;;;;;;;;2118008;23;20343;-61
2023/03/25 09:11:59;;;;;;;0.00;0.00;;;;;;;;;;2117572;23;20192;-60
2023/03/25 09:12:50;;;;;;;0.00;0.00;;;;;;;;;;2117917;23;20291;-60
2023/03/25 09:13:42;;;;;;;0.00;0.00;;;;;;;;;;2118091;23;20486;-60
2023/03/25 09:14:33;;;;;;;0.00;0.00;;;;;;;;;;2117736;23;20180;-60
2023/03/25 09:15:26;;;;;;;0.00;0.00;;;;;;;;;;2115361;23;20181;-60
2023/03/25 09:16:17;;;;;;;0.00;0.00;;;;;;;;;;2116918;23;20554;-60
2023/03/25 09:17:09;;;;;;;0.00;0.00;;;;;;;;;;2117857;23;20235;-60
2023/03/25 09:18:01;;;;;;;0.00;0.00;;;;;;;;;;2117188;23;20185;-60
2023/03/25 09:18:52;;;;;;;0.00;0.00;;;;;;;;;;2117562;23;20559;-60
2023/03/25 09:19:45;;;;;;;0.00;0.00;;;;;;;;;;2117512;23;20543;-60
2023/03/25 09:20:36;;;;;;;0.00;0.00;;;;;;;;;;2114902;23;20248;-59
2023/03/25 09:21:28;;;;;;;0.00;0.00;;;;;;;;;;2116896;23;20181;-60
2023/03/25 09:22:19;;;;;;;0.00;0.00;;;;;;;;;;2117091;23;20185;-60
2023/03/25 09:23:11;;;;;;;0.00;0.00;;;;;;;;;;2117497;23;20482;-61
2023/03/25 09:24:03;;;;;;;0.00;0.00;;;;;;;;;;2117363;23;20212;-60
2023/03/25 09:24:55;;;;;;;0.00;0.00;;;;;;;;;;2117203;23;20185;-60
2023/03/25 09:25:46;;;;;;;0.00;0.00;;;;;;;;;;2114697;23;20258;-61
2023/03/25 09:26:38;;;;;;;0.00;0.00;;;;;;;;;;2116962;23;20223;-61
2023/03/25 09:27:29;;;;;;;0.00;0.00;;;;;;;;;;2117329;23;20177;-60
2023/03/25 09:28:21;;;;;;;0.00;0.00;;;;;;;;;;2117122;23;20255;-60
2023/03/25 09:29:12;;;;;;;0.00;0.00;;;;;;;;;;2117010;23;20633;-60
2023/03/25 09:30:05;;;;;;;0.00;0.00;;;;;;;;;;2117383;23;20176;-61
2023/03/25 09:30:56;;;;;;;0.00;0.00;;;;;;;;;;2114539;23;20542;-60
2023/03/25 09:31:48;;;;;;;0.00;0.00;;;;;;;;;;2117290;23;20781;-60
2023/03/25 09:32:39;;;;;;;0.00;0.00;;;;;;;;;;2116780;23;20226;-60
2023/03/25 09:33:31;;;;;;;0.00;0.00;;;;;;;;;;2117038;23;20219;-60
2023/03/25 09:34:22;;;;;;;0.00;0.00;;;;;;;;;;2117255;23;20271;-60
2023/03/25 09:35:14;;;;;;;0.00;0.00;;;;;;;;;;2115662;23;20180;-60
2023/03/25 09:36:06;;;;;;;0.00;0.00;;;;;;;;;;2116228;23;20208;-60
2023/03/25 09:36:58;;;;;;;0.00;0.00;;;;;;;;;;2116770;23;20180;-60
2023/03/25 09:37:49;;;;;;;0.00;0.00;;;;;;;;;;2117393;23;20256;-61
2023/03/25 09:38:41;;;;;;;0.00;0.00;;;;;;;;;;2117378;23;20188;-60
2023/03/25 09:39:34;;;;;;;0.00;0.00;;;;;;;;;;2117266;23;20600;-60
2023/03/25 09:40:26;;;;;;;0.00;0.00;;;;;;;;;;2114574;23;20185;-60
2023/03/25 09:41:28;;;;;;;0.00;0.00;;;;;;;;;;2116921;23;20176;-60
2023/03/25 09:42:30;;;;;;;0.00;0.00;;;;;;;;;;2117259;23;20165;-60
2023/03/25 09:43:28;;;;;;;0.00;0.00;;;;;;;;;;2117061;23;20216;-60
2023/03/25 09:44:22;;;;;;;0.00;0.00;;;;;;;;;;2117157;23;20247;-60
2023/03/25 09:45:21;;;;;;;0.00;0.00;;;;;;;;;;2115707;23;20586;-60
2023/03/25 09:46:13;;;;;;;0.00;0.00;;;;;;;;;;2116457;23;20279;-60
2023/03/25 09:47:05;;;;;;;0.00;0.00;;;;;;;;;;2117186;23;20266;-59
2023/03/25 09:47:59;;;;;;;0.00;0.00;;;;;;;;;;2117213;23;20231;-60
2023/03/25 09:48:50;;;;;;;0.00;0.00;;;;;;;;;;2117184;23;20239;-60
2023/03/25 09:49:44;;;;;;;0.00;0.00;;;;;;;;;;2116753;23;20177;-60
2023/03/25 09:50:36;;;;;;;0.00;0.00;;;;;;;;;;2114383;23;20216;-60
2023/03/25 09:51:29;;;;;;;0.00;0.00;;;;;;;;;;2116955;23;20693;-61
2023/03/25 09:52:23;;;;;;;0.00;0.00;;;;;;;;;;2117318;23;20184;-60
2023/03/25 09:53:21;;;;;;;0.00;0.00;;;;;;;;;;2117350;23;20187;-62
2023/03/25 09:54:17;;;;;;;0.00;0.00;;;;;;;;;;2117316;23;20165;-61
2023/03/25 09:55:16;;;;;;;0.00;0.00;;;;;;;;;;2116198;23;20261;-61
2023/03/25 09:56:11;;;;;;;0.00;0.00;;;;;;;;;;2116484;23;20662;-61
2023/03/25 09:57:06;;;;;;;0.00;0.00;;;;;;;;;;2117045;23;20177;-60
2023/03/25 09:58:00;;;;;;;0.00;0.00;;;;;;;;;;2117111;23;20233;-61
2023/03/25 09:58:54;;;;;;;0.00;0.00;;;;;;;;;;2117008;23;20694;-60
2023/03/25 09:59:48;;;;;;;0.00;0.00;;;;;;;;;;2117111;23;20251;-61
2023/03/25 10:00:40;;;;;;;0.00;0.00;;;;;;;;;;2114798;23;20204;-60
2023/03/25 10:01:37;;;;;;;0.00;0.00;;;;;;;;;;2117211;23;20247;-61
2023/03/25 10:02:33;;;;;;;0.00;0.00;;;;;;;;;;2117398;23;20480;-61
2023/03/25 10:03:27;;;;;;;0.00;0.00;;;;;;;;;;2118085;23;20227;-60
2023/03/25 10:04:28;;;;;;;0.00;0.00;;;;;;;;;;2118494;23;20184;-59
2023/03/25 10:05:25;;;;;;;0.00;0.00;;;;;;;;;;2115578;23;20208;-60
2023/03/25 10:06:18;;;;;;;0.00;0.00;;;;;;;;;;2117585;23;20196;-61
2023/03/25 10:07:15;;;;;;;0.00;0.00;;;;;;;;;;2118590;23;20634;-61
2023/03/25 10:08:12;;;;;;;0.00;0.00;;;;;;;;;;2117979;23;20161;-59
2023/03/25 10:09:09;;;;;;;0.00;0.00;;;;;;;;;;2117851;23;20165;-60
2023/03/25 10:10:03;;;;;;;0.00;0.00;;;;;;;;;;2117634;23;20203;-60
2023/03/25 10:11:00;;;;;;;0.00;0.00;;;;;;;;;;2115441;23;20279;-60
2023/03/25 10:11:58;;;;;;;0.00;0.00;;;;;;;;;;2117786;23;20543;-60
2023/03/25 10:12:54;;;;;;;0.00;0.00;;;;;;;;;;2118047;23;20642;-60
2023/03/25 10:13:48;;;;;;;0.00;0.00;;;;;;;;;;2118140;23;20165;-60
2023/03/25 10:14:44;;;;;;;0.00;0.00;;;;;;;;;;2117777;23;20177;-60
2023/03/25 10:15:39;;;;;;;0.00;0.00;;;;;;;;;;2115578;23;20205;-60
2023/03/25 10:16:35;;;;;;;0.00;0.00;;;;;;;;;;2117445;23;20177;-60
2023/03/25 10:17:30;;;;;;;0.00;0.00;;;;;;;;;;2118170;23;20641;-60
2023/03/25 10:18:27;;;;;;;0.00;0.00;;;;;;;;;;2118164;23;20321;-60
2023/03/25 10:19:25;;;;;;;0.00;0.00;;;;;;;;;;2118103;23;20197;-59
2023/03/25 10:20:19;;;;;;;0.00;0.00;;;;;;;;;;2115541;23;20180;-60
2023/03/25 10:21:14;;;;;;;0.00;0.00;;;;;;;;;;2117558;23;20162;-59
2023/03/25 10:22:08;;;;;;;0.00;0.00;;;;;;;;;;2117765;23;20205;-60
2023/03/25 10:23:03;;;;;;;0.00;0.00;;;;;;;;;;2117839;23;20235;-60
2023/03/25 10:23:59;;;;;;;0.00;0.00;;;;;;;;;;2117917;23;20181;-60
2023/03/25 10:24:54;;;;;;;0.00;0.00;;;;;;;;;;2117507;23;20538;-59
2023/03/25 10:25:46;;;;;;;0.00;0.00;;;;;;;;;;2115362;23;20629;-59
2023/03/25 10:26:44;;;;;;;0.00;0.00;;;;;;;;;;2117880;23;20630;-59
2023/03/25 10:27:37;;;;;;;0.00;0.00;;;;;;;;;;2118063;23;20276;-59
2023/03/25 10:28:32;;;;;;;0.00;0.00;;;;;;;;;;2117991;23;20180;-58
2023/03/25 10:29:26;;;;;;;0.00;0.00;;;;;;;;;;2117113;23;20181;-60
2023/03/25 10:30:19;;;;;;;0.00;0.00;;;;;;;;;;2115389;23;20188;-60
2023/03/25 10:31:13;;;;;;;0.00;0.00;;;;;;;;;;2117466;23;20200;-60
2023/03/25 10:32:07;;;;;;;0.00;0.00;;;;;;;;;;2117716;23;20582;-59
2023/03/25 10:33:00;;;;;;;0.00;0.00;;;;;;;;;;2117660;23;20188;-59
2023/03/25 10:33:55;;;;;;;0.00;0.00;;;;;;;;;;2117707;23;20200;-59
2023/03/25 10:34:49;;;;;;;0.00;0.00;;;;;;;;;;2117720;23;20477;-60
2023/03/25 10:35:43;;;;;;;0.00;0.00;;;;;;;;;;2115016;23;20215;-60
2023/03/25 10:36:35;;;;;;;0.00;0.00;;;;;;;;;;2117841;23;20177;-59
2023/03/25 10:37:30;;;;;;;0.00;0.00;;;;;;;;;;2116795;23;20177;-59
2023/03/25 10:38:23;;;;;;;0.00;0.00;;;;;;;;;;2117568;23;20243;-59
2023/03/25 10:39:18;;;;;;;0.00;0.00;;;;;;;;;;2118012;23;20176;-59
2023/03/25 10:40:13;;;;;;;0.00;0.00;;;;;;;;;;2117598;23;20185;-60
2023/03/25 10:41:12;;;;;;;0.00;0.00;;;;;;;;;;2116467;23;20490;-59
2023/03/25 10:42:14;;;;;;;0.00;0.00;;;;;;;;;;2118804;23;20195;-59
2023/03/25 10:43:12;;;;;;;0.00;0.00;;;;;;;;;;2119110;23;20939;-59
2023/03/25 10:44:08;;;;;;;0.00;0.00;;;;;;;;;;2120825;23;20169;-58
2023/03/25 10:44:59;;;;;;;0.00;0.00;;;;;;;;;;2120865;23;20165;-58
2023/03/25 10:45:52;;;;;;;0.00;0.00;;;;;;;;;;2115049;23;20243;-59
2023/03/25 10:46:47;;;;;;;0.00;0.00;;;;;;;;;;2117507;23;20626;-59
2023/03/25 10:47:40;;;;;;;0.00;0.00;;;;;;;;;;2117593;23;20205;-59
2023/03/25 10:48:33;;;;;;;0.00;0.00;;;;;;;;;;2117412;23;20256;-60
2023/03/25 10:49:26;;;;;;;0.00;0.00;;;;;;;;;;2117354;23;20593;-60
2023/03/25 12:53:05;;;;;;;0.00;0.00;;;;;;;;;;2130045;22;20228;-60
2023/03/25 12:54:04;;;;;;;0.00;0.00;;;;;;;;;;2116063;23;20188;-60
2023/03/25 12:55:01;;;;;;;0.00;0.00;;;;;;;;;;2117629;23;20564;-60
2023/03/25 12:55:58;;;;;;;0.00;0.00;;;;;;;;;;2113614;23;20209;-60
2023/03/25 12:56:55;;;;;;;0.00;0.00;;;;;;;;;;2117873;23;20157;-60
2023/03/25 12:57:55;;;;;;;0.00;0.00;;;;;;;;;;2118084;23;20224;-59
2023/03/25 12:58:54;;;;;;;0.00;0.00;;;;;;;;;;2118364;23;20165;-61
2023/03/25 13:00:07;;;;;;;0.00;0.00;;;;;;;;;;2118117;23;20521;-60
2023/03/25 13:01:04;;;;;;;0.00;0.00;;;;;;;;;;2115698;23;20221;-60
2023/03/25 13:02:02;;;;;;;0.00;0.00;;;;;;;;;;2117706;23;20244;-60
2023/03/25 13:03:15;;;;;;;0.00;0.00;;;;;;;;;;2118028;23;20449;-58
2023/03/25 13:04:12;;;;;;;0.00;0.00;;;;;;;;;;2108619;23;20268;-59
2023/03/25 13:05:06;;;;;;;0.00;0.00;;;;;;;;;;2117950;23;20169;-59
2023/03/25 13:06:00;;;;;;;0.00;0.00;;;;;;;;;;2114948;23;20208;-59
2023/03/25 13:06:57;;;;;;;0.00;0.00;;;;;;;;;;2117495;23;20181;-59
2023/03/25 13:07:51;;;;;;;0.00;0.00;;;;;;;;;;2117497;23;20189;-58
2023/03/25 13:08:46;;;;;;;0.00;0.00;;;;;;;;;;2117826;23;20235;-59
2023/03/25 13:09:43;;;;;;;0.00;0.00;;;;;;;;;;2117466;23;20173;-58
2023/03/25 13:10:36;;;;;;;0.00;0.00;;;;;;;;;;2114893;23;20706;-59
2023/03/25 13:11:31;;;;;;;0.00;0.00;;;;;;;;;;2117329;23;20284;-58
2023/03/25 13:12:27;;;;;;;0.00;0.00;;;;;;;;;;2117465;23;20165;-59
2023/03/25 13:13:23;;;;;;;0.00;0.00;;;;;;;;;;2117696;23;20490;-58
2023/03/25 13:14:15;;;;;;;0.00;0.00;;;;;;;;;;2117259;23;20169;-59
2023/03/25 13:15:14;;;;;;;0.00;0.00;;;;;;;;;;2117226;23;20180;-58
2023/03/25 13:16:08;;;;;;;0.00;0.00;;;;;;;;;;2115213;23;20216;-58
2023/03/25 13:17:02;;;;;;;0.00;0.00;;;;;;;;;;2117355;23;20592;-58
2023/03/25 13:17:56;;;;;;;0.00;0.00;;;;;;;;;;2117382;23;20251;-59
2023/03/25 13:18:49;;;;;;;0.00;0.00;;;;;;;;;;2117522;23;20177;-59
2023/03/25 13:19:43;;;;;;;0.00;0.00;;;;;;;;;;2117234;23;20177;-58
2023/03/25 13:20:36;;;;;;;0.00;0.00;;;;;;;;;;2114452;23;20212;-58
2023/03/25 13:21:29;;;;;;;0.00;0.00;;;;;;;;;;2117365;23;20223;-58
2023/03/25 13:22:23;;;;;;;0.00;0.00;;;;;;;;;;2117515;23;20362;-58
2023/03/25 13:23:20;;;;;;;0.00;0.00;;;;;;;;;;2116940;23;20177;-59
2023/03/25 13:24:12;;;;;;;0.00;0.00;;;;;;;;;;2120702;23;20185;-58
2023/03/25 13:25:08;;;;;;;0.00;0.00;;;;;;;;;;2117597;23;20181;-59
2023/03/25 13:26:00;;;;;;;0.00;0.00;;;;;;;;;;2114947;23;20221;-58
2023/03/25 13:26:54;;;;;;;0.00;0.00;;;;;;;;;;2117277;23;20606;-58
2023/03/25 13:27:46;;;;;;;0.00;0.00;;;;;;;;;;2117458;23;20185;-59
2023/03/25 13:28:42;;;;;;;0.00;0.00;;;;;;;;;;2117112;23;20195;-58
2023/03/25 13:29:35;;;;;;;0.00;0.00;;;;;;;;;;2117277;23;20189;-59
2023/03/25 13:30:29;;;;;;;0.00;0.00;;;;;;;;;;2114506;23;20180;-58
2023/03/25 13:31:22;;;;;;;0.00;0.00;;;;;;;;;;2117103;23;20227;-59
2023/03/25 13:32:17;;;;;;;0.00;0.00;;;;;;;;;;2117417;23;20192;-58
2023/03/25 13:33:12;;;;;;;0.00;0.00;;;;;;;;;;2117119;23;20514;-59
2023/03/25 13:34:12;;;;;;;0.00;0.00;;;;;;;;;;2117596;23;20546;-58
2023/03/25 13:35:07;;;;;;;0.00;0.00;;;;;;;;;;2117185;23;20252;-59
2023/03/25 13:36:00;;;;;;;0.00;0.00;;;;;;;;;;2114868;23;20602;-59
2023/03/25 13:36:59;;;;;;;0.00;0.00;;;;;;;;;;2116988;23;20183;-59
2023/03/25 13:37:51;;;;;;;0.00;0.00;;;;;;;;;;2117672;23;20219;-59
2023/03/25 13:38:47;;;;;;;0.00;0.00;;;;;;;;;;2117541;23;20173;-58
2023/03/25 13:39:46;;;;;;;0.00;0.00;;;;;;;;;;2117159;23;20223;-58
2023/03/25 13:40:41;;;;;;;0.00;0.00;;;;;;;;;;2114535;23;20231;-59
2023/03/25 13:41:34;;;;;;;0.00;0.00;;;;;;;;;;2116870;23;20161;-59
2023/03/25 13:42:28;;;;;;;0.00;0.00;;;;;;;;;;2117745;23;20508;-59
2023/03/25 13:43:27;;;;;;;0.00;0.00;;;;;;;;;;2116871;23;20181;-59
2023/03/25 13:44:20;;;;;;;0.00;0.00;;;;;;;;;;2117492;23;20197;-59
2023/03/25 13:45:15;;;;;;;0.00;0.00;;;;;;;;;;2116577;23;20231;-59
2023/03/25 13:46:09;;;;;;;0.00;0.00;;;;;;;;;;2116013;23;20213;-59
2023/03/25 13:47:02;;;;;;;0.00;0.00;;;;;;;;;;2117462;23;20624;-58
2023/03/25 13:47:58;;;;;;;0.00;0.00;;;;;;;;;;2117290;23;20478;-59
2023/03/25 13:48:51;;;;;;;0.00;0.00;;;;;;;;;;2117546;23;20610;-59
2023/03/25 13:49:47;;;;;;;0.00;0.00;;;;;;;;;;2117289;23;20769;-58
2023/03/25 13:50:38;;;;;;;0.00;0.00;;;;;;;;;;2114850;23;20288;-58
2023/03/25 13:51:30;;;;;;;0.00;0.00;;;;;;;;;;2117545;23;20172;-59
2023/03/25 13:52:21;;;;;;;0.00;0.00;;;;;;;;;;2117790;23;20185;-59
2023/03/25 13:53:16;;;;;;;0.00;0.00;;;;;;;;;;2116947;23;20177;-59
2023/03/25 13:54:10;;;;;;;0.00;0.00;;;;;;;;;;2117022;23;20212;-59
2023/03/25 13:55:05;;;;;;;0.00;0.00;;;;;;;;;;2117338;23;20208;-59
2023/03/25 13:56:01;;;;;;;0.00;0.00;;;;;;;;;;2114545;23;20213;-59
2023/03/25 13:57:07;;;;;;;0.00;0.00;;;;;;;;;;2117415;23;20685;-59
2023/03/25 13:58:13;;;;;;;0.00;0.00;;;;;;;;;;2117270;23;20255;-59
2023/03/25 13:59:13;;;;;;;0.00;0.00;;;;;;;;;;2117209;23;20561;-59
2023/03/25 14:00:21;;;;;;;0.00;0.00;;;;;;;;;;2116968;23;20653;-60
2023/03/25 14:01:27;;;;;;;0.00;0.00;;;;;;;;;;2115068;23;20211;-59
2023/03/25 14:02:34;;;;;;;0.00;0.00;;;;;;;;;;2117595;23;20231;-60
2023/03/25 14:03:35;;;;;;;0.00;0.00;;;;;;;;;;2117575;23;20399;-59
2023/03/25 14:04:45;;;;;;;0.00;0.00;;;;;;;;;;2117422;23;20226;-59
2023/03/25 14:05:52;;;;;;;0.00;0.00;;;;;;;;;;2114443;23;20209;-59
2023/03/25 14:06:58;;;;;;;0.00;0.00;;;;;;;;;;2117042;23;20511;-59
2023/03/25 14:07:56;;;;;;;0.00;0.00;;;;;;;;;;2117491;23;20219;-60
2023/03/25 14:09:02;;;;;;;0.00;0.00;;;;;;;;;;2117015;23;20657;-59
2023/03/25 14:10:07;;;;;;;0.00;0.00;;;;;;;;;;2117230;23;20165;-59
2023/03/25 14:11:11;;;;;;;0.00;0.00;;;;;;;;;;2114538;23;20212;-59
2023/03/25 14:12:04;;;;;;;0.00;0.00;;;;;;;;;;2117270;23;20189;-59
2023/03/25 14:12:57;;;;;;;0.00;0.00;;;;;;;;;;2117168;23;20188;-59
2023/03/25 14:13:51;;;;;;;0.00;0.00;;;;;;;;;;2117403;23;20246;-61
2023/03/25 14:14:46;;;;;;;0.00;0.00;;;;;;;;;;2117053;23;20180;-59
2023/03/25 14:15:38;;;;;;;0.00;0.00;;;;;;;;;;2114718;23;20590;-59
2023/03/25 14:16:33;;;;;;;0.00;0.00;;;;;;;;;;2116864;23;20172;-59
2023/03/25 14:17:25;;;;;;;0.00;0.00;;;;;;;;;;2117047;23;20480;-58
2023/03/25 14:18:18;;;;;;;0.00;0.00;;;;;;;;;;2117405;23;20259;-59
2023/03/25 14:19:11;;;;;;;0.00;0.00;;;;;;;;;;2117169;23;20185;-59